sensor_id;sensor_type;location;lat;lon;timestamp;P1;durP1;ratioP1;P2;durP2;ratioP2
37267;SDS011;23154;52.542;13.362;2022-10-31T00:02:23;68.78;;;31.17;;
37267;SDS011;23154;52.542;13.362;2022-10-31T00:04:48;52.03;;;25.65;;
37267;SDS011;23154;52.542;13.362;2022-10-31T00:07:14;44.97;;;25.05;;
37267;SDS011;23154;52.542;13.362;2022-10-31T00:09:40;46.67;;;25.80;;
37267;SDS011;23154;52.542;13.362;2022-10-31T00:12:05;52.03;;;26.38;;
37267;SDS011;23154;52.542;13.362;2022-10-31T00:14:31;47.35;;;25.33;;
37267;SDS011;23154;52.542;13.362;2022-10-31T00:16:56;53.30;;;25.30;;
37267;SDS011;23154;52.542;13.362;2022-10-31T00:19:22;44.63;;;25.50;;
37267;SDS011;23154;52.542;13.362;2022-10-31T00:21:47;51.67;;;24.95;;
37267;SDS011;23154;52.542;13.362;2022-10-31T00:24:13;47.92;;;26.50;;
37267;SDS011;23154;52.542;13.362;2022-10-31T00:26:38;44.15;;;25.77;;
37267;SDS011;23154;52.542;13.362;2022-10-31T00:29:04;54.97;;;27.95;;
37267;SDS011;23154;52.542;13.362;2022-10-31T00:31:29;44.13;;;24.33;;
37267;SDS011;23154;52.542;13.362;2022-10-31T00:33:55;47.90;;;25.77;;
37267;SDS011;23154;52.542;13.362;2022-10-31T00:36:22;42.95;;;24.05;;
37267;SDS011;23154;52.542;13.362;2022-10-31T00:38:48;44.78;;;24.45;;
37267;SDS011;23154;52.542;13.362;2022-10-31T00:41:14;50.75;;;23.95;;
37267;SDS011;23154;52.542;13.362;2022-10-31T00:43:41;45.28;;;24.50;;
37267;SDS011;23154;52.542;13.362;2022-10-31T00:46:08;45.47;;;24.42;;
37267;SDS011;23154;52.542;13.362;2022-10-31T00:48:33;43.80;;;25.10;;
37267;SDS011;23154;52.542;13.362;2022-10-31T00:50:59;52.55;;;24.13;;
37267;SDS011;23154;52.542;13.362;2022-10-31T00:53:26;46.38;;;23.98;;
37267;SDS011;23154;52.542;13.362;2022-10-31T00:55:51;46.58;;;24.00;;
37267;SDS011;23154;52.542;13.362;2022-10-31T00:58:17;46.55;;;24.63;;
37267;SDS011;23154;52.542;13.362;2022-10-31T01:00:43;44.70;;;24.77;;
37267;SDS011;23154;52.542;13.362;2022-10-31T01:03:08;45.30;;;25.92;;
37267;SDS011;23154;52.542;13.362;2022-10-31T01:05:34;44.08;;;24.75;;
37267;SDS011;23154;52.542;13.362;2022-10-31T01:07:59;46.47;;;24.85;;
37267;SDS011;23154;52.542;13.362;2022-10-31T01:10:25;45.03;;;24.08;;
37267;SDS011;23154;52.542;13.362;2022-10-31T01:12:51;46.67;;;24.30;;
37267;SDS011;23154;52.542;13.362;2022-10-31T01:15:17;47.95;;;22.60;;
37267;SDS011;23154;52.542;13.362;2022-10-31T01:17:45;45.92;;;23.90;;
37267;SDS011;23154;52.542;13.362;2022-10-31T01:20:12;42.40;;;22.45;;
37267;SDS011;23154;52.542;13.362;2022-10-31T01:22:39;44.05;;;23.25;;
37267;SDS011;23154;52.542;13.362;2022-10-31T01:25:05;46.30;;;23.38;;
37267;SDS011;23154;52.542;13.362;2022-10-31T01:27:32;46.05;;;22.63;;
37267;SDS011;23154;52.542;13.362;2022-10-31T01:29:57;41.53;;;22.80;;
37267;SDS011;23154;52.542;13.362;2022-10-31T01:32:23;46.78;;;23.02;;
37267;SDS011;23154;52.542;13.362;2022-10-31T01:34:49;38.72;;;20.63;;
37267;SDS011;23154;52.542;13.362;2022-10-31T01:37:14;39.05;;;20.40;;
37267;SDS011;23154;52.542;13.362;2022-10-31T01:39:40;46.03;;;22.30;;
37267;SDS011;23154;52.542;13.362;2022-10-31T01:42:06;42.05;;;20.95;;
37267;SDS011;23154;52.542;13.362;2022-10-31T01:47:07;44.03;;;21.15;;
37267;SDS011;23154;52.542;13.362;2022-10-31T01:49:42;39.38;;;20.73;;
37267;SDS011;23154;52.542;13.362;2022-10-31T01:52:59;38.72;;;20.40;;
37267;SDS011;23154;52.542;13.362;2022-10-31T01:55:13;38.97;;;21.38;;
37267;SDS011;23154;52.542;13.362;2022-10-31T01:57:40;43.67;;;20.15;;
37267;SDS011;23154;52.542;13.362;2022-10-31T02:00:09;42.25;;;20.58;;
37267;SDS011;23154;52.542;13.362;2022-10-31T02:02:36;41.05;;;20.48;;
37267;SDS011;23154;52.542;13.362;2022-10-31T02:05:02;43.30;;;21.38;;
37267;SDS011;23154;52.542;13.362;2022-10-31T02:08:06;39.63;;;20.85;;
37267;SDS011;23154;52.542;13.362;2022-10-31T02:10:37;43.35;;;20.30;;
37267;SDS011;23154;52.542;13.362;2022-10-31T02:13:04;45.13;;;20.88;;
37267;SDS011;23154;52.542;13.362;2022-10-31T02:15:32;39.40;;;20.10;;
37267;SDS011;23154;52.542;13.362;2022-10-31T02:17:58;41.10;;;20.48;;
37267;SDS011;23154;52.542;13.362;2022-10-31T02:20:25;37.83;;;20.55;;
37267;SDS011;23154;52.542;13.362;2022-10-31T02:25:42;37.78;;;20.60;;
37267;SDS011;23154;52.542;13.362;2022-10-31T02:33:52;40.13;;;19.52;;
37267;SDS011;23154;52.542;13.362;2022-10-31T02:36:27;36.03;;;19.65;;
37267;SDS011;23154;52.542;13.362;2022-10-31T02:39:13;45.40;;;20.75;;
37267;SDS011;23154;52.542;13.362;2022-10-31T02:42:01;42.55;;;19.23;;
37267;SDS011;23154;52.542;13.362;2022-10-31T02:47:17;39.75;;;18.95;;
37267;SDS011;23154;52.542;13.362;2022-10-31T02:54:54;40.42;;;19.33;;
37267;SDS011;23154;52.542;13.362;2022-10-31T02:57:27;38.53;;;19.90;;
37267;SDS011;23154;52.542;13.362;2022-10-31T02:59:57;42.15;;;18.80;;
37267;SDS011;23154;52.542;13.362;2022-10-31T03:02:37;40.88;;;19.25;;
37267;SDS011;23154;52.542;13.362;2022-10-31T03:11:14;35.65;;;19.10;;
37267;SDS011;23154;52.542;13.362;2022-10-31T03:13:49;35.92;;;18.88;;
37267;SDS011;23154;52.542;13.362;2022-10-31T03:19:08;47.35;;;17.55;;
37267;SDS011;23154;52.542;13.362;2022-10-31T03:21:39;36.55;;;17.55;;
37267;SDS011;23154;52.542;13.362;2022-10-31T03:24:09;34.63;;;17.67;;
37267;SDS011;23154;52.542;13.362;2022-10-31T03:26:37;36.38;;;18.65;;
37267;SDS011;23154;52.542;13.362;2022-10-31T03:29:06;33.72;;;18.00;;
37267;SDS011;23154;52.542;13.362;2022-10-31T03:31:37;35.20;;;17.45;;
37267;SDS011;23154;52.542;13.362;2022-10-31T03:34:08;35.67;;;17.65;;
37267;SDS011;23154;52.542;13.362;2022-10-31T03:36:36;38.55;;;17.88;;
37267;SDS011;23154;52.542;13.362;2022-10-31T03:39:04;33.42;;;17.10;;
37267;SDS011;23154;52.542;13.362;2022-10-31T03:41:33;37.60;;;16.83;;
37267;SDS011;23154;52.542;13.362;2022-10-31T03:46:32;34.42;;;16.95;;
37267;SDS011;23154;52.542;13.362;2022-10-31T03:48:59;34.45;;;17.23;;
37267;SDS011;23154;52.542;13.362;2022-10-31T03:53:56;39.25;;;17.55;;
37267;SDS011;23154;52.542;13.362;2022-10-31T03:56:35;35.90;;;17.58;;
37267;SDS011;23154;52.542;13.362;2022-10-31T03:59:12;37.55;;;16.98;;
37267;SDS011;23154;52.542;13.362;2022-10-31T04:01:50;37.13;;;17.60;;
37267;SDS011;23154;52.542;13.362;2022-10-31T04:04:18;37.45;;;17.13;;
37267;SDS011;23154;52.542;13.362;2022-10-31T04:06:44;41.17;;;17.25;;
37267;SDS011;23154;52.542;13.362;2022-10-31T04:09:12;34.30;;;17.45;;
37267;SDS011;23154;52.542;13.362;2022-10-31T04:11:46;38.90;;;17.63;;
37267;SDS011;23154;52.542;13.362;2022-10-31T04:14:15;39.53;;;16.48;;
37267;SDS011;23154;52.542;13.362;2022-10-31T04:16:41;41.40;;;17.17;;
37267;SDS011;23154;52.542;13.362;2022-10-31T04:19:09;34.72;;;16.63;;
37267;SDS011;23154;52.542;13.362;2022-10-31T04:21:35;43.10;;;18.52;;
37267;SDS011;23154;52.542;13.362;2022-10-31T04:24:01;41.65;;;17.85;;
37267;SDS011;23154;52.542;13.362;2022-10-31T04:26:27;39.50;;;17.90;;
37267;SDS011;23154;52.542;13.362;2022-10-31T04:28:52;33.47;;;17.30;;
37267;SDS011;23154;52.542;13.362;2022-10-31T04:31:18;34.00;;;16.77;;
37267;SDS011;23154;52.542;13.362;2022-10-31T04:33:43;32.78;;;17.20;;
37267;SDS011;23154;52.542;13.362;2022-10-31T04:36:09;37.92;;;17.20;;
37267;SDS011;23154;52.542;13.362;2022-10-31T04:38:34;33.75;;;17.10;;
37267;SDS011;23154;52.542;13.362;2022-10-31T04:41:00;34.65;;;17.13;;
37267;SDS011;23154;52.542;13.362;2022-10-31T04:43:26;38.20;;;16.98;;
37267;SDS011;23154;52.542;13.362;2022-10-31T04:45:51;37.42;;;17.52;;
37267;SDS011;23154;52.542;13.362;2022-10-31T04:48:17;37.30;;;17.40;;
37267;SDS011;23154;52.542;13.362;2022-10-31T04:50:42;33.28;;;17.60;;
37267;SDS011;23154;52.542;13.362;2022-10-31T04:53:08;34.88;;;17.00;;
37267;SDS011;23154;52.542;13.362;2022-10-31T04:55:35;35.63;;;17.90;;
37267;SDS011;23154;52.542;13.362;2022-10-31T04:58:02;35.03;;;15.70;;
37267;SDS011;23154;52.542;13.362;2022-10-31T05:00:28;34.88;;;17.90;;
37267;SDS011;23154;52.542;13.362;2022-10-31T05:02:55;38.05;;;16.60;;
37267;SDS011;23154;52.542;13.362;2022-10-31T05:05:28;36.28;;;16.92;;
37267;SDS011;23154;52.542;13.362;2022-10-31T05:07:55;35.58;;;17.83;;
37267;SDS011;23154;52.542;13.362;2022-10-31T05:10:25;35.25;;;16.88;;
37267;SDS011;23154;52.542;13.362;2022-10-31T05:12:53;34.38;;;17.05;;
37267;SDS011;23154;52.542;13.362;2022-10-31T05:15:22;33.95;;;17.80;;
37267;SDS011;23154;52.542;13.362;2022-10-31T05:17:49;35.97;;;16.95;;
37267;SDS011;23154;52.542;13.362;2022-10-31T05:20:15;37.35;;;17.98;;
37267;SDS011;23154;52.542;13.362;2022-10-31T05:22:46;37.35;;;18.00;;
37267;SDS011;23154;52.542;13.362;2022-10-31T05:25:16;37.25;;;18.48;;
37267;SDS011;23154;52.542;13.362;2022-10-31T05:27:44;38.90;;;18.38;;
37267;SDS011;23154;52.542;13.362;2022-10-31T05:30:11;37.33;;;18.65;;
37267;SDS011;23154;52.542;13.362;2022-10-31T05:32:48;37.45;;;18.45;;
37267;SDS011;23154;52.542;13.362;2022-10-31T05:35:16;38.03;;;18.17;;
37267;SDS011;23154;52.542;13.362;2022-10-31T05:37:44;38.10;;;18.90;;
37267;SDS011;23154;52.542;13.362;2022-10-31T05:40:11;36.97;;;19.23;;
37267;SDS011;23154;52.542;13.362;2022-10-31T05:42:38;35.33;;;18.48;;
37267;SDS011;23154;52.542;13.362;2022-10-31T05:45:05;39.47;;;17.48;;
37267;SDS011;23154;52.542;13.362;2022-10-31T05:47:32;36.63;;;19.35;;
37267;SDS011;23154;52.542;13.362;2022-10-31T05:49:57;38.75;;;19.85;;
37267;SDS011;23154;52.542;13.362;2022-10-31T05:52:23;30.75;;;17.50;;
37267;SDS011;23154;52.542;13.362;2022-10-31T05:54:49;34.72;;;18.52;;
37267;SDS011;23154;52.542;13.362;2022-10-31T05:57:15;34.05;;;17.67;;
37267;SDS011;23154;52.542;13.362;2022-10-31T05:59:40;38.50;;;19.00;;
37267;SDS011;23154;52.542;13.362;2022-10-31T06:02:06;40.33;;;18.80;;
37267;SDS011;23154;52.542;13.362;2022-10-31T06:04:31;41.85;;;19.25;;
37267;SDS011;23154;52.542;13.362;2022-10-31T06:06:57;40.92;;;18.85;;
37267;SDS011;23154;52.542;13.362;2022-10-31T06:09:23;37.17;;;18.73;;
37267;SDS011;23154;52.542;13.362;2022-10-31T06:11:48;40.58;;;18.05;;
37267;SDS011;23154;52.542;13.362;2022-10-31T06:14:14;38.40;;;19.42;;
37267;SDS011;23154;52.542;13.362;2022-10-31T06:16:39;38.47;;;20.23;;
37267;SDS011;23154;52.542;13.362;2022-10-31T06:19:05;38.05;;;19.55;;
37267;SDS011;23154;52.542;13.362;2022-10-31T06:21:30;41.00;;;18.58;;
37267;SDS011;23154;52.542;13.362;2022-10-31T06:23:56;47.97;;;19.13;;
37267;SDS011;23154;52.542;13.362;2022-10-31T06:26:22;42.75;;;19.95;;
37267;SDS011;23154;52.542;13.362;2022-10-31T06:28:47;41.10;;;19.40;;
37267;SDS011;23154;52.542;13.362;2022-10-31T06:31:13;36.22;;;19.00;;
37267;SDS011;23154;52.542;13.362;2022-10-31T06:33:40;37.38;;;18.80;;
37267;SDS011;23154;52.542;13.362;2022-10-31T06:36:06;38.10;;;18.55;;
37267;SDS011;23154;52.542;13.362;2022-10-31T06:38:32;38.83;;;18.55;;
37267;SDS011;23154;52.542;13.362;2022-10-31T06:41:01;40.13;;;18.33;;
37267;SDS011;23154;52.542;13.362;2022-10-31T06:43:28;37.42;;;18.05;;
37267;SDS011;23154;52.542;13.362;2022-10-31T06:45:53;41.40;;;18.08;;
37267;SDS011;23154;52.542;13.362;2022-10-31T06:48:19;33.78;;;17.85;;
37267;SDS011;23154;52.542;13.362;2022-10-31T06:50:44;33.40;;;18.45;;
37267;SDS011;23154;52.542;13.362;2022-10-31T06:53:10;37.03;;;18.00;;
37267;SDS011;23154;52.542;13.362;2022-10-31T06:55:36;36.13;;;18.65;;
37267;SDS011;23154;52.542;13.362;2022-10-31T06:58:01;46.00;;;18.30;;
37267;SDS011;23154;52.542;13.362;2022-10-31T07:00:28;34.60;;;17.63;;
37267;SDS011;23154;52.542;13.362;2022-10-31T07:05:20;42.22;;;18.15;;
37267;SDS011;23154;52.542;13.362;2022-10-31T07:07:45;42.33;;;17.77;;
37267;SDS011;23154;52.542;13.362;2022-10-31T07:10:11;34.35;;;16.55;;
37267;SDS011;23154;52.542;13.362;2022-10-31T07:12:36;39.17;;;18.45;;
37267;SDS011;23154;52.542;13.362;2022-10-31T07:15:02;34.38;;;16.65;;
37267;SDS011;23154;52.542;13.362;2022-10-31T07:17:28;36.75;;;17.60;;
37267;SDS011;23154;52.542;13.362;2022-10-31T07:19:54;38.22;;;17.27;;
37267;SDS011;23154;52.542;13.362;2022-10-31T07:22:20;38.13;;;16.83;;
37267;SDS011;23154;52.542;13.362;2022-10-31T07:24:45;38.97;;;17.95;;
37267;SDS011;23154;52.542;13.362;2022-10-31T07:27:11;36.25;;;17.08;;
37267;SDS011;23154;52.542;13.362;2022-10-31T07:29:36;40.67;;;16.90;;
37267;SDS011;23154;52.542;13.362;2022-10-31T07:32:02;33.22;;;16.75;;
37267;SDS011;23154;52.542;13.362;2022-10-31T07:34:28;36.70;;;17.00;;
37267;SDS011;23154;52.542;13.362;2022-10-31T07:36:53;35.75;;;17.90;;
37267;SDS011;23154;52.542;13.362;2022-10-31T07:39:19;33.72;;;16.95;;
37267;SDS011;23154;52.542;13.362;2022-10-31T07:41:45;36.92;;;17.70;;
37267;SDS011;23154;52.542;13.362;2022-10-31T07:44:10;42.13;;;17.83;;
37267;SDS011;23154;52.542;13.362;2022-10-31T07:46:36;38.80;;;18.70;;
37267;SDS011;23154;52.542;13.362;2022-10-31T07:49:01;35.90;;;16.75;;
37267;SDS011;23154;52.542;13.362;2022-10-31T07:51:27;39.22;;;17.58;;
37267;SDS011;23154;52.542;13.362;2022-10-31T07:53:52;38.47;;;18.95;;
37267;SDS011;23154;52.542;13.362;2022-10-31T07:56:18;44.22;;;19.17;;
37267;SDS011;23154;52.542;13.362;2022-10-31T07:58:43;40.22;;;19.15;;
37267;SDS011;23154;52.542;13.362;2022-10-31T08:01:09;44.05;;;20.58;;
37267;SDS011;23154;52.542;13.362;2022-10-31T08:03:35;39.30;;;19.42;;
37267;SDS011;23154;52.542;13.362;2022-10-31T08:06:00;42.20;;;20.00;;
37267;SDS011;23154;52.542;13.362;2022-10-31T08:08:26;38.42;;;19.60;;
37267;SDS011;23154;52.542;13.362;2022-10-31T08:10:53;39.35;;;20.73;;
37267;SDS011;23154;52.542;13.362;2022-10-31T08:13:19;40.28;;;20.58;;
37267;SDS011;23154;52.542;13.362;2022-10-31T08:15:45;41.90;;;21.00;;
37267;SDS011;23154;52.542;13.362;2022-10-31T08:18:15;37.45;;;20.08;;
37267;SDS011;23154;52.542;13.362;2022-10-31T08:20:41;39.45;;;20.50;;
37267;SDS011;23154;52.542;13.362;2022-10-31T08:23:08;42.38;;;20.30;;
37267;SDS011;23154;52.542;13.362;2022-10-31T08:25:35;41.63;;;20.58;;
37267;SDS011;23154;52.542;13.362;2022-10-31T08:28:01;42.03;;;20.73;;
37267;SDS011;23154;52.542;13.362;2022-10-31T08:30:27;40.40;;;21.52;;
37267;SDS011;23154;52.542;13.362;2022-10-31T08:35:24;42.63;;;21.42;;
37267;SDS011;23154;52.542;13.362;2022-10-31T08:37:54;42.38;;;20.98;;
37267;SDS011;23154;52.542;13.362;2022-10-31T08:42:46;45.08;;;22.48;;
37267;SDS011;23154;52.542;13.362;2022-10-31T08:45:12;48.63;;;23.17;;
37267;SDS011;23154;52.542;13.362;2022-10-31T08:47:37;42.03;;;22.63;;
37267;SDS011;23154;52.542;13.362;2022-10-31T08:50:03;49.05;;;22.50;;
37267;SDS011;23154;52.542;13.362;2022-10-31T08:52:29;48.67;;;23.38;;
37267;SDS011;23154;52.542;13.362;2022-10-31T08:54:55;41.70;;;22.50;;
37267;SDS011;23154;52.542;13.362;2022-10-31T08:57:21;46.75;;;22.23;;
37267;SDS011;23154;52.542;13.362;2022-10-31T08:59:47;48.20;;;24.02;;
37267;SDS011;23154;52.542;13.362;2022-10-31T09:02:13;49.60;;;22.98;;
37267;SDS011;23154;52.542;13.362;2022-10-31T09:04:38;42.47;;;22.05;;
37267;SDS011;23154;52.542;13.362;2022-10-31T09:07:04;45.70;;;22.60;;
37267;SDS011;23154;52.542;13.362;2022-10-31T09:09:29;47.50;;;23.88;;
37267;SDS011;23154;52.542;13.362;2022-10-31T09:11:55;41.50;;;22.02;;
37267;SDS011;23154;52.542;13.362;2022-10-31T09:14:20;43.60;;;22.30;;
37267;SDS011;23154;52.542;13.362;2022-10-31T09:16:46;47.97;;;22.77;;
37267;SDS011;23154;52.542;13.362;2022-10-31T09:19:11;45.80;;;23.52;;
37267;SDS011;23154;52.542;13.362;2022-10-31T09:21:37;43.92;;;22.67;;
37267;SDS011;23154;52.542;13.362;2022-10-31T09:24:02;51.25;;;23.40;;
37267;SDS011;23154;52.542;13.362;2022-10-31T09:26:28;43.20;;;23.25;;
37267;SDS011;23154;52.542;13.362;2022-10-31T09:28:54;50.75;;;28.92;;
37267;SDS011;23154;52.542;13.362;2022-10-31T09:31:19;48.10;;;25.40;;
37267;SDS011;23154;52.542;13.362;2022-10-31T09:33:45;45.67;;;23.20;;
37267;SDS011;23154;52.542;13.362;2022-10-31T09:36:10;49.13;;;25.08;;
37267;SDS011;23154;52.542;13.362;2022-10-31T09:38:36;49.40;;;24.60;;
37267;SDS011;23154;52.542;13.362;2022-10-31T09:41:06;40.95;;;22.40;;
37267;SDS011;23154;52.542;13.362;2022-10-31T09:53:29;47.78;;;25.77;;
37267;SDS011;23154;52.542;13.362;2022-10-31T09:55:56;48.88;;;25.40;;
37267;SDS011;23154;52.542;13.362;2022-10-31T09:58:24;47.70;;;25.48;;
37267;SDS011;23154;52.542;13.362;2022-10-31T10:00:53;51.63;;;26.15;;
37267;SDS011;23154;52.542;13.362;2022-10-31T10:03:56;46.90;;;25.42;;
37267;SDS011;23154;52.542;13.362;2022-10-31T10:06:18;48.90;;;24.73;;
37267;SDS011;23154;52.542;13.362;2022-10-31T10:08:48;51.83;;;26.10;;
37267;SDS011;23154;52.542;13.362;2022-10-31T10:19:56;50.47;;;26.58;;
37267;SDS011;23154;52.542;13.362;2022-10-31T10:25:48;66.10;;;34.13;;
37267;SDS011;23154;52.542;13.362;2022-10-31T10:31:02;47.28;;;25.52;;
37267;SDS011;23154;52.542;13.362;2022-10-31T10:33:39;50.55;;;26.75;;
37267;SDS011;23154;52.542;13.362;2022-10-31T10:39:00;52.08;;;25.33;;
37267;SDS011;23154;52.542;13.362;2022-10-31T10:41:36;47.90;;;23.90;;
37267;SDS011;23154;52.542;13.362;2022-10-31T10:44:08;44.47;;;24.60;;
37267;SDS011;23154;52.542;13.362;2022-10-31T10:46:48;44.93;;;24.43;;
37267;SDS011;23154;52.542;13.362;2022-10-31T10:49:51;43.28;;;23.00;;
37267;SDS011;23154;52.542;13.362;2022-10-31T11:02:43;49.67;;;25.45;;
37267;SDS011;23154;52.542;13.362;2022-10-31T11:05:13;47.67;;;24.85;;
37267;SDS011;23154;52.542;13.362;2022-10-31T11:07:52;52.58;;;25.55;;
37267;SDS011;23154;52.542;13.362;2022-10-31T11:10:19;47.38;;;25.92;;
37267;SDS011;23154;52.542;13.362;2022-10-31T11:12:56;51.22;;;26.10;;
37267;SDS011;23154;52.542;13.362;2022-10-31T11:15:30;52.97;;;24.92;;
37267;SDS011;23154;52.542;13.362;2022-10-31T11:18:00;43.72;;;24.77;;
37267;SDS011;23154;52.542;13.362;2022-10-31T11:20:28;51.22;;;26.67;;
37267;SDS011;23154;52.542;13.362;2022-10-31T11:23:00;55.60;;;26.70;;
37267;SDS011;23154;52.542;13.362;2022-10-31T11:25:29;48.17;;;24.88;;
37267;SDS011;23154;52.542;13.362;2022-10-31T11:28:01;47.75;;;25.23;;
37267;SDS011;23154;52.542;13.362;2022-10-31T11:30:50;50.22;;;24.88;;
37267;SDS011;23154;52.542;13.362;2022-10-31T11:33:20;49.22;;;25.40;;
37267;SDS011;23154;52.542;13.362;2022-10-31T11:36:13;47.20;;;24.05;;
37267;SDS011;23154;52.542;13.362;2022-10-31T11:39:14;47.08;;;23.77;;
37267;SDS011;23154;52.542;13.362;2022-10-31T11:44:23;47.58;;;23.35;;
37267;SDS011;23154;52.542;13.362;2022-10-31T11:46:57;50.70;;;24.77;;
37267;SDS011;23154;52.542;13.362;2022-10-31T11:52:18;47.03;;;25.53;;
37267;SDS011;23154;52.542;13.362;2022-10-31T11:54:54;48.80;;;25.20;;
37267;SDS011;23154;52.542;13.362;2022-10-31T12:00:26;46.55;;;25.17;;
37267;SDS011;23154;52.542;13.362;2022-10-31T12:03:04;53.00;;;26.30;;
37267;SDS011;23154;52.542;13.362;2022-10-31T12:05:59;56.10;;;26.38;;
37267;SDS011;23154;52.542;13.362;2022-10-31T12:08:29;51.42;;;25.98;;
37267;SDS011;23154;52.542;13.362;2022-10-31T12:11:14;47.97;;;27.42;;
37267;SDS011;23154;52.542;13.362;2022-10-31T12:13:52;45.50;;;25.25;;
37267;SDS011;23154;52.542;13.362;2022-10-31T12:19:41;54.45;;;26.95;;
37267;SDS011;23154;52.542;13.362;2022-10-31T12:24:48;46.35;;;25.17;;
37267;SDS011;23154;52.542;13.362;2022-10-31T12:30:09;44.67;;;24.80;;
37267;SDS011;23154;52.542;13.362;2022-10-31T12:38:27;48.22;;;25.00;;
37267;SDS011;23154;52.542;13.362;2022-10-31T12:43:43;54.20;;;25.15;;
37267;SDS011;23154;52.542;13.362;2022-10-31T12:49:31;42.13;;;23.95;;
37267;SDS011;23154;52.542;13.362;2022-10-31T13:00:48;46.72;;;25.05;;
37267;SDS011;23154;52.542;13.362;2022-10-31T13:03:25;44.90;;;24.77;;
37267;SDS011;23154;52.542;13.362;2022-10-31T13:05:57;46.80;;;24.55;;
37267;SDS011;23154;52.542;13.362;2022-10-31T13:08:49;46.88;;;24.38;;
37267;SDS011;23154;52.542;13.362;2022-10-31T13:11:23;48.45;;;25.20;;
37267;SDS011;23154;52.542;13.362;2022-10-31T13:14:01;47.95;;;24.50;;
37267;SDS011;23154;52.542;13.362;2022-10-31T13:16:34;53.25;;;24.48;;
37267;SDS011;23154;52.542;13.362;2022-10-31T13:27:38;46.92;;;25.48;;
37267;SDS011;23154;52.542;13.362;2022-10-31T13:30:39;47.72;;;24.75;;
37267;SDS011;23154;52.542;13.362;2022-10-31T13:33:13;49.28;;;23.83;;
37267;SDS011;23154;52.542;13.362;2022-10-31T13:38:34;45.25;;;24.67;;
37267;SDS011;23154;52.542;13.362;2022-10-31T13:46:43;49.17;;;25.27;;
37267;SDS011;23154;52.542;13.362;2022-10-31T13:52:15;49.10;;;25.30;;
37267;SDS011;23154;52.542;13.362;2022-10-31T13:54:49;51.78;;;26.65;;
37267;SDS011;23154;52.542;13.362;2022-10-31T14:02:50;57.63;;;30.23;;
37267;SDS011;23154;52.542;13.362;2022-10-31T14:05:25;57.17;;;30.77;;
37267;SDS011;23154;52.542;13.362;2022-10-31T14:07:52;56.13;;;31.92;;
37267;SDS011;23154;52.542;13.362;2022-10-31T14:10:25;61.92;;;33.97;;
37267;SDS011;23154;52.542;13.362;2022-10-31T14:13:07;60.95;;;33.50;;
37267;SDS011;23154;52.542;13.362;2022-10-31T14:15:43;62.08;;;36.58;;
37267;SDS011;23154;52.542;13.362;2022-10-31T14:18:23;65.55;;;36.35;;
37267;SDS011;23154;52.542;13.362;2022-10-31T14:20:53;61.92;;;35.17;;
37267;SDS011;23154;52.542;13.362;2022-10-31T14:28:54;70.47;;;39.42;;
37267;SDS011;23154;52.542;13.362;2022-10-31T14:45:25;71.05;;;41.58;;
37267;SDS011;23154;52.542;13.362;2022-10-31T14:48:10;77.03;;;42.90;;
37267;SDS011;23154;52.542;13.362;2022-10-31T14:50:56;79.15;;;44.92;;
37267;SDS011;23154;52.542;13.362;2022-10-31T14:53:25;76.68;;;44.95;;
37267;SDS011;23154;52.542;13.362;2022-10-31T14:56:00;77.85;;;44.33;;
37267;SDS011;23154;52.542;13.362;2022-10-31T14:58:45;79.57;;;45.42;;
37267;SDS011;23154;52.542;13.362;2022-10-31T15:01:20;83.07;;;44.88;;
37267;SDS011;23154;52.542;13.362;2022-10-31T15:03:46;86.45;;;46.97;;
37267;SDS011;23154;52.542;13.362;2022-10-31T15:06:13;82.80;;;47.38;;
37267;SDS011;23154;52.542;13.362;2022-10-31T15:08:44;86.20;;;48.08;;
37267;SDS011;23154;52.542;13.362;2022-10-31T15:11:24;85.20;;;46.10;;
37267;SDS011;23154;52.542;13.362;2022-10-31T15:13:55;88.22;;;47.92;;
37267;SDS011;23154;52.542;13.362;2022-10-31T15:16:23;92.50;;;49.95;;
37267;SDS011;23154;52.542;13.362;2022-10-31T15:18:57;86.70;;;47.47;;
37267;SDS011;23154;52.542;13.362;2022-10-31T15:21:25;89.93;;;48.58;;
37267;SDS011;23154;52.542;13.362;2022-10-31T15:23:56;94.93;;;50.25;;
37267;SDS011;23154;52.542;13.362;2022-10-31T15:26:26;96.15;;;51.67;;
37267;SDS011;23154;52.542;13.362;2022-10-31T15:28:59;102.88;;;52.72;;
37267;SDS011;23154;52.542;13.362;2022-10-31T15:31:55;95.30;;;51.20;;
37267;SDS011;23154;52.542;13.362;2022-10-31T15:34:26;96.80;;;49.60;;
37267;SDS011;23154;52.542;13.362;2022-10-31T15:37:00;100.43;;;53.85;;
37267;SDS011;23154;52.542;13.362;2022-10-31T15:39:26;103.13;;;54.33;;
37267;SDS011;23154;52.542;13.362;2022-10-31T15:41:53;106.60;;;54.53;;
37267;SDS011;23154;52.542;13.362;2022-10-31T15:44:26;108.45;;;54.50;;
37267;SDS011;23154;52.542;13.362;2022-10-31T15:47:02;111.18;;;54.70;;
37267;SDS011;23154;52.542;13.362;2022-10-31T15:49:35;104.72;;;53.92;;
37267;SDS011;23154;52.542;13.362;2022-10-31T15:52:15;91.60;;;50.60;;
37267;SDS011;23154;52.542;13.362;2022-10-31T15:54:51;102.03;;;54.35;;
37267;SDS011;23154;52.542;13.362;2022-10-31T15:57:20;106.07;;;57.78;;
37267;SDS011;23154;52.542;13.362;2022-10-31T15:59:48;113.68;;;56.45;;
37267;SDS011;23154;52.542;13.362;2022-10-31T16:02:17;109.22;;;54.58;;
37267;SDS011;23154;52.542;13.362;2022-10-31T16:04:49;116.78;;;60.22;;
37267;SDS011;23154;52.542;13.362;2022-10-31T16:07:38;106.45;;;56.63;;
37267;SDS011;23154;52.542;13.362;2022-10-31T16:10:21;113.85;;;57.67;;
37267;SDS011;23154;52.542;13.362;2022-10-31T16:12:48;128.20;;;56.72;;
37267;SDS011;23154;52.542;13.362;2022-10-31T16:15:15;107.88;;;55.97;;
37267;SDS011;23154;52.542;13.362;2022-10-31T16:17:43;110.15;;;59.60;;
37267;SDS011;23154;52.542;13.362;2022-10-31T16:20:21;114.60;;;58.03;;
37267;SDS011;23154;52.542;13.362;2022-10-31T16:22:52;114.10;;;56.83;;
37267;SDS011;23154;52.542;13.362;2022-10-31T16:30:28;116.88;;;58.47;;
37267;SDS011;23154;52.542;13.362;2022-10-31T16:32:59;109.57;;;56.47;;
37267;SDS011;23154;52.542;13.362;2022-10-31T16:35:27;106.45;;;54.17;;
37267;SDS011;23154;52.542;13.362;2022-10-31T16:37:57;108.50;;;56.63;;
37267;SDS011;23154;52.542;13.362;2022-10-31T16:40:22;118.05;;;58.40;;
37267;SDS011;23154;52.542;13.362;2022-10-31T16:42:49;126.03;;;60.28;;
37267;SDS011;23154;52.542;13.362;2022-10-31T16:45:18;121.95;;;60.10;;
37267;SDS011;23154;52.542;13.362;2022-10-31T16:47:46;120.63;;;61.17;;
37267;SDS011;23154;52.542;13.362;2022-10-31T16:50:12;128.57;;;63.10;;
37267;SDS011;23154;52.542;13.362;2022-10-31T16:52:46;132.68;;;63.97;;
37267;SDS011;23154;52.542;13.362;2022-10-31T16:55:13;143.38;;;66.40;;
37267;SDS011;23154;52.542;13.362;2022-10-31T16:57:44;155.25;;;67.53;;
37267;SDS011;23154;52.542;13.362;2022-10-31T17:00:16;141.10;;;67.60;;
37267;SDS011;23154;52.542;13.362;2022-10-31T17:02:44;147.45;;;68.75;;
37267;SDS011;23154;52.542;13.362;2022-10-31T17:05:11;156.95;;;70.18;;
37267;SDS011;23154;52.542;13.362;2022-10-31T17:07:40;144.07;;;67.95;;
37267;SDS011;23154;52.542;13.362;2022-10-31T17:10:06;162.05;;;69.80;;